Time;durP1;ratioP1;P1;durP2;ratioP2;P2;SDS_P1;SDS_P2;PMS_P1;PMS_P2;Temp;Humidity;BMP_temperature;BMP_pressure;BME280_temperature;BME280_humidity;BME280_pressure;Samples;Min_cycle;Max_cycle;Signal;HPM_P1;HPM_P2
2023/05/25 00:01:10;;;;;;;9.30;6.60;;;;;;;18.33;62.63;100500.20;108832;1256;60147;-51
2023/05/25 00:03:39;;;;;;;8.80;6.00;;;;;;;18.33;62.75;100497.03;107805;1257;62529;-50
2023/05/25 00:06:07;;;;;;;9.80;5.60;;;;;;;18.40;62.81;100495.02;108755;1257;58236;-52
2023/05/25 00:08:34;;;;;;;11.60;7.00;;;;;;;18.46;62.83;100495.09;108766;1257;58125;-50
2023/05/25 00:11:01;;;;;;;13.50;7.20;;;;;;;18.48;62.83;100495.59;106543;1257;64853;-50
2023/05/25 00:13:29;;;;;;;10.80;6.80;;;;;;;18.46;63.09;100493.69;105100;1262;61418;-50
2023/05/25 00:15:57;;;;;;;11.40;7.40;;;;;;;18.43;63.41;100493.88;105070;1262;63677;-50
2023/05/25 00:18:25;;;;;;;11.60;7.90;;;;;;;18.36;63.71;100492.76;105126;1260;60560;-50
2023/05/25 00:20:53;;;;;;;9.10;7.00;;;;;;;18.32;63.97;100488.44;108630;1256;58322;-51
2023/05/25 00:23:21;;;;;;;10.70;6.40;;;;;;;18.33;64.09;100488.64;108824;1256;63875;-51
2023/05/25 00:25:48;;;;;;;8.90;6.10;;;;;;;18.39;63.97;100486.45;108805;1259;60195;-51
2023/05/25 00:28:16;;;;;;;11.00;7.10;;;;;;;18.44;63.86;100482.55;108809;1256;64164;-51
2023/05/25 00:30:43;;;;;;;10.10;7.20;;;;;;;18.48;63.61;100484.07;108735;1256;58240;-51
2023/05/25 00:33:10;;;;;;;9.80;7.60;;;;;;;18.51;63.36;100489.14;108767;1256;58431;-52
2023/05/25 00:35:38;;;;;;;10.00;6.80;;;;;;;18.54;62.98;100492.27;108775;1257;64902;-51
2023/05/25 00:38:05;;;;;;;9.50;6.70;;;;;;;18.51;62.83;100497.18;108906;1256;60200;-51
2023/05/25 00:40:33;;;;;;;9.70;7.10;;;;;;;18.47;62.81;100493.86;106136;1265;62602;-50
2023/05/25 00:43:00;;;;;;;8.10;6.30;;;;;;;18.44;62.87;100491.28;105419;1257;60523;-51
2023/05/25 00:45:28;;;;;;;9.70;7.10;;;;;;;18.44;62.90;100488.77;105026;1263;60449;-52
2023/05/25 00:47:55;;;;;;;9.90;6.90;;;;;;;18.45;62.94;100493.39;105038;1262;64905;-49
2023/05/25 00:50:41;;;;;;;8.50;6.70;;;;;;;18.45;62.99;100492.56;105089;1260;61378;-49
2023/05/25 00:53:09;;;;;;;11.50;7.70;;;;;;;18.40;63.33;100493.41;104907;1262;62513;-51
2023/05/25 00:55:54;;;;;;;9.50;7.80;;;;;;;18.34;63.39;100490.83;105028;1263;60437;-51
2023/05/25 00:58:23;;;;;;;9.60;8.00;;;;;;;18.24;63.63;100488.77;105078;1262;59215;-50
2023/05/25 01:00:52;;;;;;;10.30;8.60;;;;;;;18.17;63.82;100488.48;104973;1261;64941;-50
2023/05/25 01:03:20;;;;;;;9.00;7.60;;;;;;;18.12;64.06;100488.23;105148;1260;68799;-50
2023/05/25 01:05:49;;;;;;;12.00;7.90;;;;;;;18.14;64.00;100492.73;105035;1259;64147;-52
2023/05/25 01:08:17;;;;;;;11.80;8.00;;;;;;;18.17;63.91;100495.05;104977;1262;60520;-51
2023/05/25 01:10:44;;;;;;;12.10;7.60;;;;;;;18.18;63.95;100497.61;105148;1257;60461;-51
2023/05/25 01:13:12;;;;;;;12.10;7.70;;;;;;;18.17;64.03;100500.83;106733;1256;64902;-52
2023/05/25 01:15:40;;;;;;;11.60;8.20;;;;;;;18.14;64.27;100500.27;108701;1255;61350;-53
2023/05/25 01:18:08;;;;;;;10.60;8.30;;;;;;;18.12;64.43;100500.27;105540;1259;63174;-53
2023/05/25 01:20:35;;;;;;;13.40;7.90;;;;;;;18.10;64.32;100502.10;108614;1256;60575;-52
2023/05/25 01:23:11;;;;;;;10.90;6.90;;;;;;;18.06;64.35;100508.21;105033;1261;61152;-52
2023/05/25 01:25:43;;;;;;;10.80;7.00;;;;;;;18.09;64.44;100503.31;105348;1257;64907;-52
2023/05/25 01:28:27;;;;;;;9.80;7.20;;;;;;;18.13;64.49;100503.14;104967;1261;61821;-51
2023/05/25 01:30:55;;;;;;;11.40;7.10;;;;;;;18.15;64.49;100502.47;105031;1257;63705;-52
2023/05/25 01:33:23;;;;;;;10.20;7.40;;;;;;;18.12;64.57;100500.80;108721;1257;58940;-51
2023/05/25 01:35:50;;;;;;;9.30;7.90;;;;;;;18.09;64.55;100496.72;108752;1255;58309;-50
2023/05/25 01:38:18;;;;;;;10.40;8.30;;;;;;;18.07;64.59;100493.92;105226;1257;64986;-50
2023/05/25 01:40:46;;;;;;;9.70;8.40;;;;;;;18.02;64.57;100494.77;105077;1262;61437;-52
2023/05/25 01:43:13;;;;;;;9.50;7.50;;;;;;;17.94;64.70;100497.08;108658;1256;63819;-50
2023/05/25 01:45:41;;;;;;;11.30;7.70;;;;;;;17.92;64.49;100494.15;108684;1262;58839;-51
2023/05/25 01:48:12;;;;;;;10.30;7.40;;;;;;;17.88;64.47;100495.97;108845;1256;58581;-52
2023/05/25 01:50:56;;;;;;;11.00;8.00;;;;;;;17.82;64.29;100495.85;108657;1257;63632;-51
2023/05/25 01:53:36;;;;;;;11.00;8.00;;;;;;;17.77;64.50;100491.60;108718;1255;70270;-51
2023/05/25 01:56:07;;;;;;;12.10;8.60;;;;;;;17.77;64.60;100492.55;105584;1262;62474;-51
2023/05/25 01:58:38;;;;;;;13.80;8.40;;;;;;;17.76;64.75;100496.31;107164;1261;60565;-51
2023/05/25 02:01:07;;;;;;;11.50;8.60;;;;;;;17.75;64.68;100496.06;108698;1261;58760;-51
2023/05/25 02:03:36;;;;;;;11.40;8.60;;;;;;;17.73;64.74;100495.30;108678;1257;66033;-51
2023/05/25 02:06:03;;;;;;;10.90;7.10;;;;;;;17.80;64.59;100496.13;108664;1257;68243;-51
2023/05/25 02:08:34;;;;;;;10.00;7.90;;;;;;;17.86;64.34;100502.57;106177;1256;63764;-51
2023/05/25 02:11:02;;;;;;;12.80;8.40;;;;;;;17.90;64.21;100507.85;105680;1262;60571;-50
2023/05/25 02:13:30;;;;;;;12.00;9.10;;;;;;;17.90;64.09;100512.65;105121;1260;60400;-50
2023/05/25 02:15:57;;;;;;;12.50;9.00;;;;;;;17.83;64.09;100513.13;105129;1270;65311;-51
2023/05/25 02:18:25;;;;;;;12.30;9.50;;;;;;;17.75;64.13;100514.48;108784;1256;60387;-51
2023/05/25 02:20:53;;;;;;;13.20;9.50;;;;;;;17.71;64.09;100510.77;108714;1257;66514;-51
2023/05/25 02:23:21;;;;;;;10.60;8.50;;;;;;;17.69;64.01;100511.63;108693;1262;58540;-51
2023/05/25 02:25:50;;;;;;;15.00;9.10;;;;;;;17.68;64.06;100512.46;105287;1260;60562;-51
2023/05/25 02:28:18;;;;;;;11.20;8.50;;;;;;;17.70;63.93;100513.89;105075;1262;67024;-51
2023/05/25 02:30:45;;;;;;;10.60;8.30;;;;;;;17.74;64.09;100513.12;105292;1262;71803;-50
2023/05/25 02:33:13;;;;;;;11.60;9.00;;;;;;;17.78;64.21;100514.41;105062;1262;63193;-50
2023/05/25 02:35:41;;;;;;;11.60;8.40;;;;;;;17.79;64.24;100518.34;108708;1262;59819;-52
2023/05/25 02:38:09;;;;;;;12.70;9.10;;;;;;;17.80;64.23;100520.97;108721;1259;58504;-51
2023/05/25 02:40:37;;;;;;;12.70;8.60;;;;;;;17.79;64.10;100523.30;108659;1256;64934;-51
2023/05/25 02:43:04;;;;;;;12.20;8.80;;;;;;;17.76;64.14;100524.34;108915;1256;61339;-53
2023/05/25 02:45:32;;;;;;;10.40;8.10;;;;;;;17.74;64.15;100525.80;108665;1261;65444;-51
2023/05/25 02:47:59;;;;;;;11.20;7.20;;;;;;;17.78;64.19;100525.89;108894;1257;58567;-52
2023/05/25 02:50:27;;;;;;;10.80;7.30;;;;;;;17.84;64.13;100529.91;106353;1262;60463;-50
2023/05/25 02:52:58;;;;;;;11.30;8.70;;;;;;;17.85;64.35;100532.80;104897;1263;64875;-51
2023/05/25 02:55:26;;;;;;;14.10;9.60;;;;;;;17.85;64.56;100529.98;108808;1260;61412;-51
2023/05/25 02:57:54;;;;;;;11.50;9.10;;;;;;;17.86;64.70;100521.94;105793;1262;63681;-53
2023/05/25 03:00:49;;;;;;;12.00;10.30;;;;;;;17.86;64.67;100519.81;107062;1262;60456;-50
2023/05/25 03:03:17;;;;;;;14.80;9.50;;;;;;;17.85;64.82;100520.60;108757;1257;58541;-51
2023/05/25 03:05:46;;;;;;;10.10;9.00;;;;;;;17.82;64.84;100519.45;108785;1257;64341;-52
2023/05/25 03:08:14;;;;;;;11.10;9.00;;;;;;;17.87;64.85;100519.99;108839;1256;60819;-50
2023/05/25 03:10:41;;;;;;;13.30;7.90;;;;;;;17.93;64.87;100523.92;108657;1257;63810;-51
2023/05/25 03:13:09;;;;;;;12.60;9.90;;;;;;;17.99;64.99;100527.73;106272;1255;60444;-50
2023/05/25 03:15:38;;;;;;;13.60;10.00;;;;;;;18.04;64.83;100528.84;104930;1257;60503;-50
2023/05/25 03:18:07;;;;;;;11.60;9.30;;;;;;;18.03;64.60;100528.90;108757;1262;65809;-51
2023/05/25 03:20:36;;;;;;;13.40;10.10;;;;;;;17.99;64.62;100533.06;105399;1257;61727;-52
2023/05/25 03:23:04;;;;;;;11.70;9.60;;;;;;;17.94;64.86;100534.67;105143;1262;64249;-52
2023/05/25 03:25:32;;;;;;;12.20;9.20;;;;;;;17.92;64.85;100539.36;104947;1257;60456;-51
2023/05/25 03:28:00;;;;;;;14.90;9.30;;;;;;;17.96;64.62;100541.06;105080;1263;60457;-52
2023/05/25 03:30:28;;;;;;;10.20;8.20;;;;;;;18.02;64.43;100542.89;104963;1262;64909;-50
2023/05/25 03:32:56;;;;;;;12.00;9.30;;;;;;;18.08;64.33;100542.29;105807;1257;61305;-50
2023/05/25 03:35:24;;;;;;;14.60;9.40;;;;;;;18.13;64.19;100543.52;104997;1263;63754;-53
2023/05/25 03:37:51;;;;;;;11.50;9.70;;;;;;;18.16;64.02;100539.58;104898;1263;60558;-50
2023/05/25 03:40:19;;;;;;;12.20;9.70;;;;;;;18.20;63.97;100541.30;105039;1263;60368;-50
2023/05/25 03:42:47;;;;;;;13.30;9.70;;;;;;;18.22;63.83;100537.34;105047;1260;63641;-50
2023/05/25 03:45:14;;;;;;;12.50;9.30;;;;;;;18.24;63.77;100538.08;104908;1261;61196;-52
2023/05/25 03:47:44;;;;;;;12.00;9.40;;;;;;;18.28;63.79;100539.12;108739;1257;65527;-51
2023/05/25 03:50:12;;;;;;;12.80;9.90;;;;;;;18.36;63.79;100541.40;108682;1257;58625;-51
2023/05/25 03:52:39;;;;;;;13.30;10.30;;;;;;;18.45;63.54;100539.66;105419;1257;60437;-50
2023/05/25 03:55:07;;;;;;;16.00;10.40;;;;;;;18.51;63.73;100537.90;105042;1263;63697;-52
2023/05/25 03:57:35;;;;;;;11.50;10.00;;;;;;;18.56;63.74;100536.76;106276;1262;61323;-50
2023/05/25 04:00:04;;;;;;;14.40;10.90;;;;;;;18.59;63.69;100535.38;105065;1262;63904;-50
2023/05/25 04:02:38;;;;;;;14.00;11.10;;;;;;;18.62;63.76;100540.42;108881;1256;58735;-51
2023/05/25 04:05:06;;;;;;;12.80;10.00;;;;;;;18.67;64.14;100543.19;108776;1260;58420;-51
2023/05/25 04:07:35;;;;;;;10.30;9.30;;;;;;;18.79;64.16;100543.15;108650;1256;63779;-55
2023/05/25 04:10:03;;;;;;;15.70;11.50;;;;;;;18.92;64.13;100540.95;108680;1257;60773;-50
2023/05/25 04:12:32;;;;;;;12.00;10.10;;;;;;;19.08;64.09;100539.55;108687;1257;63687;-51
2023/05/25 04:14:59;;;;;;;16.20;11.70;;;;;;;19.21;64.01;100542.45;106242;1258;60538;-49
2023/05/25 04:17:27;;;;;;;12.80;11.10;;;;;;;19.36;64.01;100546.63;104547;1261;60512;-49
2023/05/25 04:19:55;;;;;;;16.00;12.00;;;;;;;19.48;63.76;100547.59;107102;1258;64934;-50
2023/05/25 04:22:23;;;;;;;17.70;11.20;;;;;;;19.59;63.40;100544.86;107835;1261;60110;-50
2023/05/25 04:24:50;;;;;;;13.00;11.40;;;;;;;19.72;63.03;100543.34;104566;1258;64509;-50
2023/05/25 04:27:19;;;;;;;19.70;11.30;;;;;;;19.84;62.89;100545.23;104240;1263;345647;-50
2023/05/25 04:32:17;;;;;;;17.50;12.00;;;;;;;19.74;63.49;100541.71;102293;1293;601520;-50
2023/05/25 04:34:51;;;;;;;15.50;12.50;;;;;;;19.95;62.67;100541.35;104385;1272;59244;-50
2023/05/25 04:37:26;;;;;;;14.80;12.00;;;;;;;19.99;62.30;100536.88;108158;1269;57207;-50
2023/05/25 04:39:56;;;;;;;15.20;11.60;;;;;;;20.04;62.43;100536.33;106742;1266;62018;-50
2023/05/25 04:42:24;;;;;;;13.60;11.40;;;;;;;20.10;62.19;100539.05;104358;1273;61371;-51
2023/05/25 04:44:57;;;;;;;14.00;10.30;;;;;;;20.15;61.94;100545.73;108087;1272;176438;-50
2023/05/25 04:47:25;;;;;;;14.90;11.60;;;;;;;20.20;61.61;100542.97;108349;1264;57146;-51
2023/05/25 04:49:53;;;;;;;16.30;11.90;;;;;;;20.24;61.55;100538.23;108286;1264;57581;-52
2023/05/25 04:52:22;;;;;;;14.10;11.10;;;;;;;20.29;61.53;100539.78;106080;1265;64357;-52
2023/05/25 04:54:50;;;;;;;14.50;11.20;;;;;;;20.36;61.61;100540.55;104098;1269;61457;-49
2023/05/25 04:57:18;;;;;;;15.90;11.30;;;;;;;20.40;61.47;100542.52;104242;1270;63656;-50
2023/05/25 04:59:46;;;;;;;12.80;9.20;;;;;;;20.49;60.99;100538.56;106271;1264;58331;-50
2023/05/25 05:02:14;;;;;;;15.10;10.10;;;;;;;20.53;60.83;100540.99;104120;1269;59796;-49
2023/05/25 05:04:42;;;;;;;13.10;9.80;;;;;;;20.56;60.80;100540.06;108501;1260;64142;-51
2023/05/25 05:07:09;;;;;;;10.60;9.20;;;;;;;20.61;60.67;100537.24;108504;1260;61777;-51
2023/05/25 05:09:37;;;;;;;11.30;9.30;;;;;;;20.68;60.38;100539.25;108476;1260;64299;-65
2023/05/25 05:12:06;;;;;;;12.80;9.10;;;;;;;20.74;59.46;100537.56;108581;1261;57892;-61
2023/05/25 05:14:38;;;;;;;11.40;9.80;;;;;;;20.78;59.25;100538.16;107389;1263;59278;-61
2023/05/25 05:17:06;;;;;;;10.90;9.10;;;;;;;20.82;59.43;100537.95;105982;1258;64138;-62
2023/05/25 05:19:33;;;;;;;13.50;8.80;;;;;;;20.89;59.10;100540.77;106263;1261;60133;-61
2023/05/25 05:22:02;;;;;;;12.20;8.40;;;;;;;20.99;59.03;100540.27;106216;1257;63862;-62
2023/05/25 05:24:30;;;;;;;11.20;8.30;;;;;;;21.10;59.08;100535.95;106086;1263;59714;-58
2023/05/25 05:26:58;;;;;;;12.10;9.00;;;;;;;21.23;58.72;100533.95;107928;1262;59829;-60
2023/05/25 05:29:36;;;;;;;11.50;8.50;;;;;;;21.25;58.33;100537.98;104693;1257;64145;-60
2023/05/25 05:32:04;;;;;;;10.00;8.50;;;;;;;21.30;58.02;100538.67;104582;1263;61327;-65
2023/05/25 05:34:32;;;;;;;11.70;9.00;;;;;;;21.33;57.74;100542.89;108079;1257;63777;-63
2023/05/25 05:37:04;;;;;;;9.90;8.40;;;;;;;21.38;57.82;100545.77;106225;1263;59845;-64
2023/05/25 05:39:32;;;;;;;9.30;8.20;;;;;;;21.42;57.99;100546.10;105788;1264;59771;-61
2023/05/25 05:42:00;;;;;;;13.60;8.20;;;;;;;21.50;58.18;100548.31;104285;1264;64128;-59
2023/05/25 05:44:28;;;;;;;12.70;8.60;;;;;;;21.59;58.03;100549.34;108583;1258;61337;-60
2023/05/25 05:46:59;;;;;;;11.00;9.20;;;;;;;21.67;57.92;100551.23;108705;1263;63692;-67
2023/05/25 05:49:28;;;;;;;11.40;8.50;;;;;;;21.72;57.93;100549.71;108711;1257;57887;-60
2023/05/25 05:51:56;;;;;;;12.60;10.00;;;;;;;21.75;57.59;100553.12;108667;1257;57819;-59
2023/05/25 05:54:26;;;;;;;12.20;9.20;;;;;;;21.75;57.55;100554.96;108748;1257;64079;-60
2023/05/25 05:56:54;;;;;;;13.90;8.70;;;;;;;21.77;57.40;100556.10;107939;1263;61962;-59
2023/05/25 05:59:22;;;;;;;11.30;9.10;;;;;;;21.81;57.16;100552.96;105006;1263;63007;-59
2023/05/25 06:01:50;;;;;;;9.90;8.70;;;;;;;21.85;56.87;100549.41;108697;1257;59329;-60
2023/05/25 06:04:18;;;;;;;10.40;7.90;;;;;;;21.91;56.83;100553.59;106058;1261;59834;-62
2023/05/25 06:06:45;;;;;;;13.20;8.80;;;;;;;21.97;56.75;100554.96;104641;1261;64964;-61
2023/05/25 06:09:13;;;;;;;10.80;7.40;;;;;;;22.04;56.68;100556.91;106213;1260;60323;-60
2023/05/25 06:11:41;;;;;;;10.00;7.50;;;;;;;22.11;56.05;100560.96;104634;1258;62431;-60
2023/05/25 06:14:10;;;;;;;11.00;7.90;;;;;;;22.16;55.71;100560.70;104329;1257;59560;-60
2023/05/25 06:16:37;;;;;;;11.20;8.50;;;;;;;22.20;55.46;100561.27;104101;1262;59663;-60
2023/05/25 06:19:05;;;;;;;10.50;8.10;;;;;;;22.22;55.51;100562.69;104480;1257;65252;-62
2023/05/25 06:21:33;;;;;;;10.30;7.10;;;;;;;22.23;55.51;100564.52;105124;1257;60096;-59
2023/05/25 06:24:01;;;;;;;10.40;7.20;;;;;;;22.25;55.58;100564.65;104556;1263;65866;-64
2023/05/25 06:26:30;;;;;;;9.20;6.60;;;;;;;22.30;54.85;100565.17;104769;1258;62499;-60
2023/05/25 06:28:58;;;;;;;9.80;7.40;;;;;;;22.35;54.76;100567.16;108645;1256;58879;-58
2023/05/25 06:31:26;;;;;;;9.90;7.30;;;;;;;22.43;55.28;100566.05;108631;1256;64173;-65
2023/05/25 06:33:54;;;;;;;10.70;7.10;;;;;;;22.51;55.26;100564.16;105242;1263;60121;-63
2023/05/25 06:36:22;;;;;;;9.60;7.50;;;;;;;22.58;54.86;100565.19;105349;1258;74182;-64
2023/05/25 06:38:50;;;;;;;11.30;8.20;;;;;;;22.65;54.83;100569.06;107562;1257;59753;-65
2023/05/25 06:41:18;;;;;;;9.90;6.80;;;;;;;22.73;54.50;100564.20;106261;1263;59574;-63
2023/05/25 06:43:46;;;;;;;10.30;6.80;;;;;;;22.79;54.25;100566.75;106503;1255;62941;-63
2023/05/25 06:46:21;;;;;;;9.00;6.30;;;;;;;22.85;53.93;100567.73;108669;1257;61289;-64
2023/05/25 06:48:49;;;;;;;13.30;6.10;;;;;;;22.92;53.29;100565.48;108711;1263;62452;-65
2023/05/25 06:51:17;;;;;;;9.40;6.60;;;;;;;22.97;52.76;100569.92;108736;1257;57687;-65
2023/05/25 06:53:45;;;;;;;12.10;5.90;;;;;;;23.03;52.40;100568.25;108698;1263;57964;-64
2023/05/25 06:56:12;;;;;;;10.90;6.50;;;;;;;23.08;52.18;100568.46;108804;1257;63553;-64
2023/05/25 06:58:40;;;;;;;11.00;6.30;;;;;;;23.12;52.02;100564.77;108720;1259;61428;-64
2023/05/25 07:01:07;;;;;;;9.30;6.10;;;;;;;23.17;51.52;100565.38;108725;1257;63772;-64
2023/05/25 07:03:35;;;;;;;8.90;6.50;;;;;;;23.22;51.29;100564.47;108147;1258;58257;-63
2023/05/25 07:06:03;;;;;;;8.80;5.40;;;;;;;23.26;51.26;100559.64;106285;1262;59653;-65
2023/05/25 07:08:30;;;;;;;9.80;5.70;;;;;;;23.32;51.68;100556.16;106232;1264;64877;-64
2023/05/25 07:10:58;;;;;;;7.80;6.20;;;;;;;23.39;51.45;100559.70;106265;1262;69542;-64
2023/05/25 07:13:25;;;;;;;7.90;5.70;;;;;;;23.45;51.15;100558.42;106153;1257;63951;-64
2023/05/25 07:15:53;;;;;;;6.90;4.80;;;;;;;23.48;50.69;100561.32;106243;1257;59610;-64
2023/05/25 07:18:20;;;;;;;7.90;5.20;;;;;;;23.54;50.17;100561.98;106208;1257;60437;-65
2023/05/25 07:20:48;;;;;;;6.30;4.90;;;;;;;23.61;50.01;100560.10;106438;1263;64088;-65
2023/05/25 07:23:15;;;;;;;7.10;5.20;;;;;;;23.67;50.15;100560.94;106332;1262;60222;-65
2023/05/25 07:25:43;;;;;;;9.00;4.70;;;;;;;23.74;49.31;100565.61;106004;1257;62461;-63
2023/05/25 07:28:11;;;;;;;10.30;5.20;;;;;;;23.78;48.88;100564.00;104526;1257;61427;-65
2023/05/25 07:30:39;;;;;;;7.20;5.20;;;;;;;23.83;48.48;100561.96;105323;1262;59963;-65
2023/05/25 07:33:07;;;;;;;7.70;5.00;;;;;;;23.85;48.05;100560.73;108838;1258;62894;-65
2023/05/25 07:35:34;;;;;;;8.20;5.30;;;;;;;23.89;47.77;100562.59;108778;1257;60175;-63
2023/05/25 07:38:03;;;;;;;6.60;4.80;;;;;;;23.93;47.31;100559.49;108804;1257;62576;-62
2023/05/25 07:40:31;;;;;;;7.20;4.80;;;;;;;23.99;47.06;100561.11;108697;1257;57835;-63
2023/05/25 07:42:58;;;;;;;7.10;4.30;;;;;;;24.05;47.43;100558.51;108826;1257;57744;-69
2023/05/25 07:45:26;;;;;;;8.30;4.90;;;;;;;24.10;46.67;100554.48;108679;1257;64056;-71
2023/05/25 07:47:53;;;;;;;8.90;5.60;;;;;;;24.17;46.02;100554.65;108701;1257;60104;-68
2023/05/25 07:50:21;;;;;;;8.40;4.60;;;;;;;24.25;45.45;100554.63;108300;1257;62527;-65
2023/05/25 07:52:48;;;;;;;9.50;5.50;;;;;;;24.33;45.30;100556.70;105999;1257;59676;-65
2023/05/25 07:55:17;;;;;;;10.10;5.20;;;;;;;24.38;45.28;100556.19;106175;1257;59698;-63
2023/05/25 07:57:45;;;;;;;9.50;5.70;;;;;;;24.44;44.99;100554.88;105833;1257;62823;-63
2023/05/25 08:00:13;;;;;;;9.00;5.70;;;;;;;24.52;44.51;100553.69;104546;1263;61336;-67
2023/05/25 08:02:40;;;;;;;8.90;5.40;;;;;;;24.60;44.46;100553.56;108774;1257;63782;-66
2023/05/25 08:05:08;;;;;;;8.10;5.20;;;;;;;24.68;45.06;100551.77;108766;1257;59665;-62
2023/05/25 08:07:36;;;;;;;8.70;5.60;;;;;;;24.76;44.30;100549.41;108817;1257;60340;-61
2023/05/25 08:10:07;;;;;;;12.40;6.30;;;;;;;24.83;44.01;100547.31;108768;1257;64202;-64
2023/05/25 08:12:35;;;;;;;12.30;6.00;;;;;;;24.90;43.08;100544.05;108089;1257;61345;-64
2023/05/25 08:15:15;;;;;;;13.50;6.70;;;;;;;24.95;42.54;100544.15;105063;1257;63819;-63
2023/05/25 08:17:43;;;;;;;7.20;5.30;;;;;;;25.01;42.59;100543.02;108371;1257;58770;-60
2023/05/25 08:20:11;;;;;;;10.30;5.90;;;;;;;25.07;42.20;100538.94;108693;1260;57632;-62
2023/05/25 08:22:39;;;;;;;11.50;6.20;;;;;;;25.14;42.11;100537.86;105910;1258;62868;-59
2023/05/25 08:25:07;;;;;;;12.20;6.50;;;;;;;25.20;41.64;100537.44;106893;1257;61546;-65
2023/05/25 08:27:34;;;;;;;8.70;5.80;;;;;;;25.26;41.34;100533.95;104657;1263;62492;-63
2023/05/25 08:30:04;;;;;;;11.00;6.40;;;;;;;25.31;41.40;100533.15;106133;1258;59636;-63
2023/05/25 08:32:32;;;;;;;10.50;6.80;;;;;;;25.36;41.34;100535.48;104829;1257;59282;-60
2023/05/25 08:35:02;;;;;;;9.80;6.30;;;;;;;25.43;40.59;100532.37;105098;1257;64109;-62
2023/05/25 08:37:33;;;;;;;11.50;6.70;;;;;;;25.50;40.48;100534.56;108778;1257;60287;-63
2023/05/25 08:40:01;;;;;;;8.60;5.80;;;;;;;25.58;40.55;100534.06;108780;1257;62617;-64
2023/05/25 08:42:29;;;;;;;10.20;6.30;;;;;;;25.68;40.11;100534.72;108700;1260;62282;-63
2023/05/25 08:44:57;;;;;;;9.10;6.30;;;;;;;25.76;40.10;100534.83;108711;1257;59971;-63
2023/05/25 08:47:25;;;;;;;11.50;6.30;;;;;;;25.83;39.57;100533.53;108096;1257;65115;-64
2023/05/25 08:49:52;;;;;;;7.90;5.80;;;;;;;25.92;39.83;100529.52;104771;1263;60453;-65
2023/05/25 08:52:21;;;;;;;10.30;6.40;;;;;;;26.04;38.67;100526.32;106057;1257;62519;-63
2023/05/25 08:54:50;;;;;;;8.30;5.90;;;;;;;26.14;38.61;100522.91;106123;1257;60440;-67
2023/05/25 08:57:48;;;;;;;12.90;6.10;;;;;;;26.24;38.92;100522.02;106178;1258;60994;-62
2023/05/25 09:00:17;;;;;;;8.80;6.20;;;;;;;26.33;38.46;100521.98;106321;1257;63710;-63
2023/05/25 09:02:50;;;;;;;8.70;6.10;;;;;;;26.38;38.37;100519.80;106024;1257;60488;-64
2023/05/25 09:05:18;;;;;;;8.80;5.70;;;;;;;26.44;38.25;100516.41;106042;1260;64245;-61
2023/05/25 09:07:45;;;;;;;12.20;6.60;;;;;;;26.52;38.05;100518.20;106208;1260;60430;-64
2023/05/25 09:10:13;;;;;;;10.10;5.90;;;;;;;26.56;37.62;100518.26;106101;1257;60447;-61
2023/05/25 09:12:41;;;;;;;11.30;6.40;;;;;;;26.59;37.00;100520.77;106047;1263;63641;-61
2023/05/25 09:15:12;;;;;;;8.40;6.30;;;;;;;26.64;37.23;100524.02;104485;1263;62205;-62
2023/05/25 09:17:40;;;;;;;11.60;6.50;;;;;;;26.70;36.77;100524.87;108731;1257;63794;-62
2023/05/25 09:20:14;;;;;;;8.30;6.10;;;;;;;26.76;36.74;100514.83;104910;1257;61044;-63
2023/05/25 09:22:41;;;;;;;7.60;5.40;;;;;;;26.84;36.07;100509.98;106687;1259;60306;-62
2023/05/25 09:25:10;;;;;;;8.70;5.50;;;;;;;26.93;34.89;100508.39;104511;1257;64897;-61
2023/05/25 09:27:37;;;;;;;8.50;5.50;;;;;;;27.00;34.87;100508.24;106002;1257;61696;-68
2023/05/25 09:30:06;;;;;;;8.00;5.00;;;;;;;27.00;35.48;100511.65;105492;1258;63788;-61
2023/05/25 09:32:34;;;;;;;7.70;4.90;;;;;;;26.95;36.04;100512.20;105326;1260;60543;-62
2023/05/25 09:35:12;;;;;;;8.40;5.40;;;;;;;26.87;35.55;100514.73;104616;1263;60360;-61
2023/05/25 09:37:42;;;;;;;7.40;5.10;;;;;;;26.78;35.65;100513.72;104777;1258;65060;-63
2023/05/25 09:40:11;;;;;;;6.90;5.00;;;;;;;26.72;36.58;100516.20;104653;1260;61848;-62
2023/05/25 09:42:41;;;;;;;11.70;5.90;;;;;;;26.68;36.99;100521.57;108861;1256;63720;-64
2023/05/25 09:45:09;;;;;;;7.60;5.10;;;;;;;26.68;37.45;100513.80;108841;1256;58696;-62
2023/05/25 09:47:37;;;;;;;7.20;5.30;;;;;;;26.69;37.85;100509.80;108818;1256;59378;-63
2023/05/25 09:50:05;;;;;;;9.30;4.80;;;;;;;26.70;37.89;100508.05;108825;1256;64836;-63
2023/05/25 09:52:33;;;;;;;6.90;4.50;;;;;;;26.70;38.03;100503.90;106224;1258;61378;-63
2023/05/25 09:55:01;;;;;;;7.60;4.20;;;;;;;26.71;38.15;100499.61;104697;1258;64281;-64
2023/05/25 09:57:28;;;;;;;8.50;4.50;;;;;;;26.73;38.00;100495.02;108865;1256;58168;-62
2023/05/25 09:59:56;;;;;;;7.80;4.50;;;;;;;26.72;37.63;100489.84;108779;1256;58360;-63
2023/05/25 10:02:23;;;;;;;7.70;4.60;;;;;;;26.73;38.36;100491.23;107505;1256;64939;-62
2023/05/25 10:04:51;;;;;;;7.70;4.20;;;;;;;26.76;38.64;100494.90;105268;1261;69187;-61
2023/05/25 10:07:19;;;;;;;7.20;4.60;;;;;;;26.76;37.54;100500.41;104800;1258;63921;-61
2023/05/25 10:09:46;;;;;;;6.70;4.50;;;;;;;26.73;37.04;100498.98;104666;1262;60440;-61
2023/05/25 10:12:16;;;;;;;8.70;4.50;;;;;;;26.68;37.34;100498.08;104506;1262;60657;-62
2023/05/25 10:14:44;;;;;;;8.60;4.80;;;;;;;26.58;37.71;100496.58;108792;1256;65220;-63
2023/05/25 10:17:11;;;;;;;9.90;5.00;;;;;;;26.46;37.76;100495.52;108742;1257;61603;-61
2023/05/25 10:19:44;;;;;;;11.50;5.70;;;;;;;26.35;38.37;100492.20;108649;1256;65605;-62
2023/05/25 10:22:35;;;;;;;8.60;5.10;;;;;;;26.25;38.63;100493.52;108629;1257;59296;-62
2023/05/25 10:25:04;;;;;;;7.30;4.90;;;;;;;26.12;39.23;100493.07;108655;1256;60469;-62
2023/05/25 10:27:37;;;;;;;7.60;4.70;;;;;;;26.02;39.50;100493.20;108729;1257;65299;-62
2023/05/25 10:30:06;;;;;;;8.40;4.70;;;;;;;25.91;39.59;100496.48;108665;1257;61385;-61
2023/05/25 10:32:35;;;;;;;9.20;4.60;;;;;;;25.79;39.92;100498.86;106463;1259;63769;-61
2023/05/25 10:35:04;;;;;;;7.40;4.40;;;;;;;25.70;40.45;100501.09;108817;1256;58935;-62
2023/05/25 10:37:32;;;;;;;7.70;4.40;;;;;;;25.60;40.68;100502.04;108846;1256;59522;-62
2023/05/25 10:40:00;;;;;;;7.70;4.20;;;;;;;25.52;40.76;100505.79;108783;1256;65002;-63
2023/05/25 10:42:28;;;;;;;10.00;5.00;;;;;;;25.45;41.13;100498.39;108779;1256;61417;-62
2023/05/25 10:44:56;;;;;;;8.70;5.00;;;;;;;25.43;41.38;100495.96;108785;1256;63710;-62
2023/05/25 10:47:23;;;;;;;6.40;4.40;;;;;;;25.43;41.48;100491.69;108778;1257;58419;-63
2023/05/25 10:49:56;;;;;;;7.80;5.00;;;;;;;25.42;42.07;100490.10;108756;1256;59830;-62
2023/05/25 10:52:28;;;;;;;6.90;5.10;;;;;;;25.45;42.57;100493.11;108795;1256;64915;-64
2023/05/25 10:54:56;;;;;;;9.50;4.70;;;;;;;25.48;42.47;100498.64;108806;1256;63277;-61
2023/05/25 10:57:24;;;;;;;8.80;4.90;;;;;;;25.42;42.08;100506.69;106673;1257;64730;-61
2023/05/25 11:00:07;;;;;;;6.60;5.00;;;;;;;25.29;42.33;100505.89;105244;1261;61740;-61
2023/05/25 11:02:49;;;;;;;6.90;4.70;;;;;;;25.16;41.99;100509.14;106539;1255;60562;-64
2023/05/25 11:05:26;;;;;;;6.60;4.80;;;;;;;25.01;41.85;100513.90;105439;1256;64403;-65
2023/05/25 11:07:57;;;;;;;6.10;4.10;;;;;;;24.87;41.84;100510.04;105453;1260;60328;-62
2023/05/25 11:10:47;;;;;;;11.30;5.30;;;;;;;24.74;42.16;100507.70;106695;1257;62538;-61
2023/05/25 11:13:30;;;;;;;7.30;4.90;;;;;;;24.66;42.48;100510.58;106242;1257;59186;-62
2023/05/25 11:16:08;;;;;;;7.20;4.20;;;;;;;24.59;42.51;100514.23;106241;1260;60393;-64
2023/05/25 11:18:36;;;;;;;7.70;4.50;;;;;;;24.56;42.91;100517.98;106407;1257;63635;-62
2023/05/25 11:21:21;;;;;;;6.30;3.60;;;;;;;24.56;42.91;100526.80;108811;1256;61353;-64
2023/05/25 11:23:53;;;;;;;6.60;4.20;;;;;;;24.55;42.98;100528.90;108787;1257;62532;-63